Terminal Aerodrome Forecast
Issued by NWS

Home | Current Version | Previous Version | Text Only | Print | Product List | Glossary On
Versions: 1 2 3 4 5 6 7 8 9 10 11 12 13 14 15
278
FTUS44 KBMX 232340
TAFANB
TAF
KANB 232340Z 2400/2424 31009KT P6SM VCSH OVC070
     FM240100 29008KT P6SM OVC015
     FM240700 25005KT 4SM BR OVC007
     FM241600 32010G17KT P6SM OVC015
     FM241900 31013G18KT P6SM OVC025=

USA.gov is the U.S. government's official web portal to all federal, state and local government web resources and services.